sensor_id;sensor_type;location;lat;lon;timestamp;temperature;humidity
64561;DHT22;50960;46.838;16.838;2022-11-20T04:02:32;2.80;99.90
64561;DHT22;50960;46.838;16.838;2022-11-20T04:04:58;2.80;99.90
64561;DHT22;50960;46.838;16.838;2022-11-20T04:07:25;2.70;99.90
64561;DHT22;50960;46.838;16.838;2022-11-20T04:09:51;2.80;99.90
64561;DHT22;50960;46.838;16.838;2022-11-20T04:12:17;2.80;99.90
64561;DHT22;50960;46.838;16.838;2022-11-20T04:14:43;2.80;99.90
64561;DHT22;50960;46.838;16.838;2022-11-20T04:17:09;2.70;99.90
64561;DHT22;50960;46.838;16.838;2022-11-20T04:19:36;2.70;99.90
64561;DHT22;50960;46.838;16.838;2022-11-20T04:22:02;2.70;99.90
64561;DHT22;50960;46.838;16.838;2022-11-20T04:24:28;2.70;99.90
64561;DHT22;50960;46.838;16.838;2022-11-20T04:26:54;2.70;99.90
64561;DHT22;50960;46.838;16.838;2022-11-20T04:29:20;2.60;99.90
64561;DHT22;50960;46.838;16.838;2022-11-20T04:31:47;2.60;99.90
64561;DHT22;50960;46.838;16.838;2022-11-20T04:34:13;2.60;99.90
64561;DHT22;50960;46.838;16.838;2022-11-20T04:36:39;2.60;99.90
64561;DHT22;50960;46.838;16.838;2022-11-20T04:39:06;2.60;99.90
64561;DHT22;50960;46.838;16.838;2022-11-20T04:41:35;2.70;99.90
64561;DHT22;50960;46.838;16.838;2022-11-20T04:44:02;2.60;99.90
64561;DHT22;50960;46.838;16.838;2022-11-20T04:46:35;2.70;99.90
64561;DHT22;50960;46.838;16.838;2022-11-20T04:49:02;2.60;99.90
64561;DHT22;50960;46.838;16.838;2022-11-20T04:51:29;2.50;99.90
64561;DHT22;50960;46.838;16.838;2022-11-20T04:53:55;2.60;99.90
64561;DHT22;50960;46.838;16.838;2022-11-20T04:56:22;2.70;99.90
64561;DHT22;50960;46.838;16.838;2022-11-20T04:58:48;2.70;99.90
64561;DHT22;50960;46.838;16.838;2022-11-20T05:01:17;2.70;99.90
64561;DHT22;50960;46.838;16.838;2022-11-20T05:03:44;2.70;99.90
64561;DHT22;50960;46.838;16.838;2022-11-20T05:06:12;2.70;99.90
64561;DHT22;50960;46.838;16.838;2022-11-20T05:08:39;2.60;99.90
64561;DHT22;50960;46.838;16.838;2022-11-20T05:11:14;2.60;99.90
64561;DHT22;50960;46.838;16.838;2022-11-20T05:13:41;2.60;99.90
64561;DHT22;50960;46.838;16.838;2022-11-20T05:16:13;2.70;99.90
64561;DHT22;50960;46.838;16.838;2022-11-20T05:18:41;2.70;99.90
64561;DHT22;50960;46.838;16.838;2022-11-20T05:21:08;2.70;99.90
64561;DHT22;50960;46.838;16.838;2022-11-20T05:23:35;2.70;99.90
64561;DHT22;50960;46.838;16.838;2022-11-20T05:26:02;2.70;99.90
64561;DHT22;50960;46.838;16.838;2022-11-20T05:28:29;2.70;99.90
64561;DHT22;50960;46.838;16.838;2022-11-20T05:30:56;2.80;99.90
64561;DHT22;50960;46.838;16.838;2022-11-20T05:33:22;2.90;99.90
64561;DHT22;50960;46.838;16.838;2022-11-20T05:35:48;2.80;99.90
64561;DHT22;50960;46.838;16.838;2022-11-20T05:38:15;2.70;99.90
64561;DHT22;50960;46.838;16.838;2022-11-20T05:40:41;2.70;99.90
64561;DHT22;50960;46.838;16.838;2022-11-20T05:43:07;2.70;99.90
64561;DHT22;50960;46.838;16.838;2022-11-20T05:45:34;2.80;99.90
64561;DHT22;50960;46.838;16.838;2022-11-20T05:48:00;2.90;99.90
64561;DHT22;50960;46.838;16.838;2022-11-20T08:47:31;4.60;98.20
64561;DHT22;50960;46.838;16.838;2022-11-20T08:49:57;4.70;98.10
64561;DHT22;50960;46.838;16.838;2022-11-20T08:52:24;4.90;98.10
64561;DHT22;50960;46.838;16.838;2022-11-20T08:54:50;4.90;97.50
64561;DHT22;50960;46.838;16.838;2022-11-20T08:57:16;4.70;97.40
64561;DHT22;50960;46.838;16.838;2022-11-20T08:59:42;4.50;98.20
64561;DHT22;50960;46.838;16.838;2022-11-20T09:02:09;4.50;98.60
64561;DHT22;50960;46.838;16.838;2022-11-20T09:04:35;4.60;98.70
64561;DHT22;50960;46.838;16.838;2022-11-20T09:07:01;4.60;98.50
64561;DHT22;50960;46.838;16.838;2022-11-20T09:09:27;4.80;99.10
64561;DHT22;50960;46.838;16.838;2022-11-20T09:11:54;4.90;99.50
64561;DHT22;50960;46.838;16.838;2022-11-20T09:14:20;4.90;98.90
64561;DHT22;50960;46.838;16.838;2022-11-20T09:16:47;5.00;98.40
64561;DHT22;50960;46.838;16.838;2022-11-20T09:19:13;4.90;97.80
64561;DHT22;50960;46.838;16.838;2022-11-20T09:21:39;5.20;98.00
64561;DHT22;50960;46.838;16.838;2022-11-20T09:24:06;5.20;97.20
64561;DHT22;50960;46.838;16.838;2022-11-20T09:26:32;5.20;96.80
64561;DHT22;50960;46.838;16.838;2022-11-20T09:28:58;5.30;97.00
64561;DHT22;50960;46.838;16.838;2022-11-20T09:31:25;5.40;96.40
64561;DHT22;50960;46.838;16.838;2022-11-20T09:33:52;5.60;96.90
64561;DHT22;50960;46.838;16.838;2022-11-20T09:36:18;5.50;96.60
64561;DHT22;50960;46.838;16.838;2022-11-20T09:38:45;5.40;97.30
64561;DHT22;50960;46.838;16.838;2022-11-20T09:44:12;5.40;96.80
64561;DHT22;50960;46.838;16.838;2022-11-20T09:46:54;5.40;97.00
64561;DHT22;50960;46.838;16.838;2022-11-20T09:51:59;5.60;97.80
64561;DHT22;50960;46.838;16.838;2022-11-20T09:54:32;5.50;97.70
64561;DHT22;50960;46.838;16.838;2022-11-20T09:57:03;5.50;97.30
64561;DHT22;50960;46.838;16.838;2022-11-20T09:59:38;5.70;96.50
64561;DHT22;50960;46.838;16.838;2022-11-20T10:07:27;5.30;96.20
64561;DHT22;50960;46.838;16.838;2022-11-20T10:09:56;5.60;97.80
64561;DHT22;50960;46.838;16.838;2022-11-20T10:13:38;5.80;95.80
64561;DHT22;50960;46.838;16.838;2022-11-20T10:18:09;5.60;96.60
64561;DHT22;50960;46.838;16.838;2022-11-20T10:26:20;5.70;96.20
64561;DHT22;50960;46.838;16.838;2022-11-20T10:29:00;5.40;97.10
64561;DHT22;50960;46.838;16.838;2022-11-20T10:31:37;5.40;97.20
64561;DHT22;50960;46.838;16.838;2022-11-20T10:34:12;5.90;98.00
64561;DHT22;50960;46.838;16.838;2022-11-20T10:36:56;5.80;96.90
64561;DHT22;50960;46.838;16.838;2022-11-20T10:39:37;6.00;97.00
64561;DHT22;50960;46.838;16.838;2022-11-20T10:42:10;5.70;96.00
64561;DHT22;50960;46.838;16.838;2022-11-20T10:44:39;5.50;97.70
64561;DHT22;50960;46.838;16.838;2022-11-20T10:47:28;5.80;97.00
64561;DHT22;50960;46.838;16.838;2022-11-20T10:50:01;6.00;95.40
64561;DHT22;50960;46.838;16.838;2022-11-20T11:00:51;6.60;93.70
64561;DHT22;50960;46.838;16.838;2022-11-20T11:03:26;6.40;94.10
64561;DHT22;50960;46.838;16.838;2022-11-20T11:06:02;6.70;93.60
64561;DHT22;50960;46.838;16.838;2022-11-20T11:08:37;6.60;93.50
64561;DHT22;50960;46.838;16.838;2022-11-20T11:11:28;6.50;93.70
64561;DHT22;50960;46.838;16.838;2022-11-20T11:14:07;6.30;94.40
64561;DHT22;50960;46.838;16.838;2022-11-20T11:16:34;6.40;94.80
64561;DHT22;50960;46.838;16.838;2022-11-20T11:19:11;6.70;94.50
64561;DHT22;50960;46.838;16.838;2022-11-20T11:21:38;6.70;93.40
64561;DHT22;50960;46.838;16.838;2022-11-20T11:24:23;6.80;93.70
64561;DHT22;50960;46.838;16.838;2022-11-20T11:27:02;6.90;93.60
64561;DHT22;50960;46.838;16.838;2022-11-20T11:29:32;7.00;92.90
64561;DHT22;50960;46.838;16.838;2022-11-20T11:32:12;6.90;93.60
64561;DHT22;50960;46.838;16.838;2022-11-20T11:34:39;6.80;93.60
64561;DHT22;50960;46.838;16.838;2022-11-20T11:37:13;7.20;93.30
64561;DHT22;50960;46.838;16.838;2022-11-20T11:39:42;7.10;92.70
64561;DHT22;50960;46.838;16.838;2022-11-20T11:42:15;7.00;93.10
64561;DHT22;50960;46.838;16.838;2022-11-20T11:44:46;7.40;93.00
64561;DHT22;50960;46.838;16.838;2022-11-20T11:47:45;7.50;91.60
64561;DHT22;50960;46.838;16.838;2022-11-20T11:58:40;8.30;91.20
64561;DHT22;50960;46.838;16.838;2022-11-20T12:01:33;8.40;90.80
64561;DHT22;50960;46.838;16.838;2022-11-20T12:07:03;8.40;90.90
64561;DHT22;50960;46.838;16.838;2022-11-20T12:09:43;8.40;91.30
64561;DHT22;50960;46.838;16.838;2022-11-20T12:12:23;8.50;90.60
64561;DHT22;50960;46.838;16.838;2022-11-20T12:14:53;8.10;90.80
64561;DHT22;50960;46.838;16.838;2022-11-20T12:17:20;7.60;90.80
64561;DHT22;50960;46.838;16.838;2022-11-20T12:19:46;7.70;91.30
64561;DHT22;50960;46.838;16.838;2022-11-20T12:22:33;7.90;90.90
64561;DHT22;50960;46.838;16.838;2022-11-20T12:25:15;7.70;91.40
64561;DHT22;50960;46.838;16.838;2022-11-20T12:30:24;8.10;91.30
64561;DHT22;50960;46.838;16.838;2022-11-20T12:33:01;8.20;91.20
64561;DHT22;50960;46.838;16.838;2022-11-20T12:35:46;8.20;91.30
64561;DHT22;50960;46.838;16.838;2022-11-20T12:38:30;8.30;91.10
64561;DHT22;50960;46.838;16.838;2022-11-20T12:43:27;8.00;90.60
64561;DHT22;50960;46.838;16.838;2022-11-20T12:46:16;8.00;91.10
64561;DHT22;50960;46.838;16.838;2022-11-20T12:51:46;7.80;92.00
64561;DHT22;50960;46.838;16.838;2022-11-20T12:54:29;7.60;92.30
64561;DHT22;50960;46.838;16.838;2022-11-20T12:57:16;7.80;92.10
64561;DHT22;50960;46.838;16.838;2022-11-20T13:07:18;8.20;92.30
64561;DHT22;50960;46.838;16.838;2022-11-20T13:09:47;8.10;92.20
64561;DHT22;50960;46.838;16.838;2022-11-20T13:12:31;8.00;91.70
64561;DHT22;50960;46.838;16.838;2022-11-20T13:20:06;7.90;92.40
64561;DHT22;50960;46.838;16.838;2022-11-20T13:22:46;8.00;92.10
64561;DHT22;50960;46.838;16.838;2022-11-20T13:25:32;8.30;92.20
64561;DHT22;50960;46.838;16.838;2022-11-20T13:30:37;8.40;91.70
64561;DHT22;50960;46.838;16.838;2022-11-20T13:33:32;8.50;91.50
64561;DHT22;50960;46.838;16.838;2022-11-20T13:36:05;8.40;91.70
64561;DHT22;50960;46.838;16.838;2022-11-20T13:38:50;8.50;92.00
64561;DHT22;50960;46.838;16.838;2022-11-20T13:41:53;8.60;92.30
64561;DHT22;50960;46.838;16.838;2022-11-20T13:44:42;8.50;91.90
64561;DHT22;50960;46.838;16.838;2022-11-20T13:47:29;8.30;92.00
64561;DHT22;50960;46.838;16.838;2022-11-20T13:49:57;8.20;92.20
64561;DHT22;50960;46.838;16.838;2022-11-20T14:00:25;9.10;91.10
64561;DHT22;50960;46.838;16.838;2022-11-20T14:03:09;9.20;91.20
64561;DHT22;50960;46.838;16.838;2022-11-20T14:05:56;9.30;91.10
64561;DHT22;50960;46.838;16.838;2022-11-20T14:08:42;9.10;90.80
64561;DHT22;50960;46.838;16.838;2022-11-20T14:11:14;8.90;91.00
64561;DHT22;50960;46.838;16.838;2022-11-20T14:14:01;8.70;91.70
64561;DHT22;50960;46.838;16.838;2022-11-20T14:16:31;8.70;92.30
64561;DHT22;50960;46.838;16.838;2022-11-20T14:21:52;8.80;92.00
64561;DHT22;50960;46.838;16.838;2022-11-20T14:24:21;8.70;92.00
64561;DHT22;50960;46.838;16.838;2022-11-20T14:26:49;8.60;92.50
64561;DHT22;50960;46.838;16.838;2022-11-20T14:29:17;8.60;93.00
64561;DHT22;50960;46.838;16.838;2022-11-20T14:31:45;8.50;93.40
64561;DHT22;50960;46.838;16.838;2022-11-20T14:34:24;8.30;93.60
64561;DHT22;50960;46.838;16.838;2022-11-20T14:36:59;8.00;93.60
64561;DHT22;50960;46.838;16.838;2022-11-20T14:39:32;7.70;94.20
64561;DHT22;50960;46.838;16.838;2022-11-20T14:41:59;7.70;94.60
64561;DHT22;50960;46.838;16.838;2022-11-20T14:44:31;7.40;95.00
64561;DHT22;50960;46.838;16.838;2022-11-20T14:47:00;7.10;95.80
64561;DHT22;50960;46.838;16.838;2022-11-20T14:49:29;6.90;96.50
64561;DHT22;50960;46.838;16.838;2022-11-20T14:52:02;6.80;97.10
64561;DHT22;50960;46.838;16.838;2022-11-20T14:54:29;6.70;97.40
64561;DHT22;50960;46.838;16.838;2022-11-20T14:56:58;6.80;97.50
64561;DHT22;50960;46.838;16.838;2022-11-20T14:59:26;6.50;98.00
64561;DHT22;50960;46.838;16.838;2022-11-20T15:01:59;6.50;98.30
64561;DHT22;50960;46.838;16.838;2022-11-20T15:04:26;6.60;98.50
64561;DHT22;50960;46.838;16.838;2022-11-20T15:06:58;6.60;98.10
64561;DHT22;50960;46.838;16.838;2022-11-20T15:09:25;6.70;98.10
64561;DHT22;50960;46.838;16.838;2022-11-20T15:11:57;6.70;98.20
64561;DHT22;50960;46.838;16.838;2022-11-20T15:14:25;6.30;98.80
64561;DHT22;50960;46.838;16.838;2022-11-20T15:16:52;6.40;99.00
64561;DHT22;50960;46.838;16.838;2022-11-20T15:19:23;6.50;98.90
64561;DHT22;50960;46.838;16.838;2022-11-20T15:21:50;6.50;99.00
64561;DHT22;50960;46.838;16.838;2022-11-20T15:24:17;6.20;99.30
64561;DHT22;50960;46.838;16.838;2022-11-20T15:26:43;6.10;99.90
64561;DHT22;50960;46.838;16.838;2022-11-20T15:29:11;6.10;99.90
64561;DHT22;50960;46.838;16.838;2022-11-20T15:31:38;6.20;99.90
64561;DHT22;50960;46.838;16.838;2022-11-20T15:34:11;6.20;99.90
64561;DHT22;50960;46.838;16.838;2022-11-20T15:36:42;6.20;99.90
64561;DHT22;50960;46.838;16.838;2022-11-20T15:39:09;6.10;99.90
64561;DHT22;50960;46.838;16.838;2022-11-20T15:41:36;6.10;99.90
64561;DHT22;50960;46.838;16.838;2022-11-20T15:44:03;6.10;99.90
64561;DHT22;50960;46.838;16.838;2022-11-20T15:46:31;6.00;99.90
64561;DHT22;50960;46.838;16.838;2022-11-20T15:49:04;6.10;99.90
64561;DHT22;50960;46.838;16.838;2022-11-20T15:51:35;6.10;99.90
64561;DHT22;50960;46.838;16.838;2022-11-20T15:54:16;6.00;99.90
64561;DHT22;50960;46.838;16.838;2022-11-20T15:56:49;6.00;99.90
64561;DHT22;50960;46.838;16.838;2022-11-20T15:59:18;6.00;99.90
64561;DHT22;50960;46.838;16.838;2022-11-20T16:01:44;5.90;99.90
64561;DHT22;50960;46.838;16.838;2022-11-20T16:04:15;5.90;99.90
64561;DHT22;50960;46.838;16.838;2022-11-20T16:06:41;5.90;99.90
64561;DHT22;50960;46.838;16.838;2022-11-20T16:09:08;5.70;99.90
64561;DHT22;50960;46.838;16.838;2022-11-20T16:11:35;5.70;99.90
64561;DHT22;50960;46.838;16.838;2022-11-20T16:14:03;5.70;99.90
64561;DHT22;50960;46.838;16.838;2022-11-20T16:16:48;5.80;99.90
64561;DHT22;50960;46.838;16.838;2022-11-20T16:19:15;5.60;99.90
64561;DHT22;50960;46.838;16.838;2022-11-20T16:21:42;5.60;99.90
64561;DHT22;50960;46.838;16.838;2022-11-20T16:24:12;5.50;99.90
64561;DHT22;50960;46.838;16.838;2022-11-20T16:26:39;5.40;99.90
64561;DHT22;50960;46.838;16.838;2022-11-20T16:29:07;5.30;99.90
64561;DHT22;50960;46.838;16.838;2022-11-20T16:31:33;5.20;99.90
64561;DHT22;50960;46.838;16.838;2022-11-20T16:34:02;5.10;99.90
64561;DHT22;50960;46.838;16.838;2022-11-20T16:36:29;5.10;99.90
64561;DHT22;50960;46.838;16.838;2022-11-20T16:39:00;5.20;99.90
64561;DHT22;50960;46.838;16.838;2022-11-20T16:41:29;5.30;99.90
64561;DHT22;50960;46.838;16.838;2022-11-20T16:43:58;5.30;99.90
64561;DHT22;50960;46.838;16.838;2022-11-20T16:46:29;5.40;99.90
64561;DHT22;50960;46.838;16.838;2022-11-20T16:48:57;5.40;99.90
64561;DHT22;50960;46.838;16.838;2022-11-20T16:51:24;5.50;99.90
64561;DHT22;50960;46.838;16.838;2022-11-20T16:53:51;5.40;99.90
64561;DHT22;50960;46.838;16.838;2022-11-20T16:56:20;5.20;99.90
64561;DHT22;50960;46.838;16.838;2022-11-20T16:58:48;5.10;99.90
64561;DHT22;50960;46.838;16.838;2022-11-20T17:01:17;5.00;99.90
64561;DHT22;50960;46.838;16.838;2022-11-20T17:03:47;4.80;99.90
64561;DHT22;50960;46.838;16.838;2022-11-20T17:06:21;4.80;99.90
64561;DHT22;50960;46.838;16.838;2022-11-20T17:08:47;4.80;99.90
64561;DHT22;50960;46.838;16.838;2022-11-20T17:11:15;4.80;99.90
64561;DHT22;50960;46.838;16.838;2022-11-20T17:13:42;4.90;99.90
64561;DHT22;50960;46.838;16.838;2022-11-20T17:16:14;4.90;99.90
64561;DHT22;50960;46.838;16.838;2022-11-20T17:18:41;4.90;99.90
64561;DHT22;50960;46.838;16.838;2022-11-20T17:21:09;4.90;99.90
64561;DHT22;50960;46.838;16.838;2022-11-20T17:23:37;5.00;99.90
64561;DHT22;50960;46.838;16.838;2022-11-20T17:26:06;4.80;99.90
64561;DHT22;50960;46.838;16.838;2022-11-20T17:28:33;4.90;99.90
64561;DHT22;50960;46.838;16.838;2022-11-20T17:31:10;4.80;99.90
64561;DHT22;50960;46.838;16.838;2022-11-20T17:33:39;4.80;99.90
64561;DHT22;50960;46.838;16.838;2022-11-20T17:36:07;4.80;99.90
64561;DHT22;50960;46.838;16.838;2022-11-20T17:38:34;4.90;99.90
64561;DHT22;50960;46.838;16.838;2022-11-20T17:41:05;4.90;99.90
64561;DHT22;50960;46.838;16.838;2022-11-20T17:43:32;5.00;99.90
64561;DHT22;50960;46.838;16.838;2022-11-20T17:45:59;5.20;99.90
64561;DHT22;50960;46.838;16.838;2022-11-20T17:48:25;5.10;99.90
64561;DHT22;50960;46.838;16.838;2022-11-20T17:50:51;5.00;99.90
64561;DHT22;50960;46.838;16.838;2022-11-20T17:53:17;5.00;99.90
64561;DHT22;50960;46.838;16.838;2022-11-20T17:55:43;5.10;99.90
64561;DHT22;50960;46.838;16.838;2022-11-20T17:58:38;5.20;99.90
64561;DHT22;50960;46.838;16.838;2022-11-20T18:01:05;5.20;99.90
64561;DHT22;50960;46.838;16.838;2022-11-20T18:03:32;5.20;99.90
64561;DHT22;50960;46.838;16.838;2022-11-20T18:05:58;5.20;99.90
64561;DHT22;50960;46.838;16.838;2022-11-20T18:08:26;5.10;99.90
64561;DHT22;50960;46.838;16.838;2022-11-20T18:10:53;5.20;99.90
64561;DHT22;50960;46.838;16.838;2022-11-20T18:13:19;5.20;99.90
64561;DHT22;50960;46.838;16.838;2022-11-20T18:16:06;5.20;99.90
64561;DHT22;50960;46.838;16.838;2022-11-20T18:18:32;5.20;99.90
64561;DHT22;50960;46.838;16.838;2022-11-20T18:20:58;5.20;99.90
64561;DHT22;50960;46.838;16.838;2022-11-20T18:23:25;4.90;99.90
64561;DHT22;50960;46.838;16.838;2022-11-20T18:25:51;4.80;99.90
64561;DHT22;50960;46.838;16.838;2022-11-20T18:28:17;4.90;99.90
64561;DHT22;50960;46.838;16.838;2022-11-20T18:30:44;4.90;99.90
64561;DHT22;50960;46.838;16.838;2022-11-20T18:33:11;5.00;99.90
64561;DHT22;50960;46.838;16.838;2022-11-20T18:35:37;4.90;99.90
64561;DHT22;50960;46.838;16.838;2022-11-20T18:38:07;5.00;99.90
64561;DHT22;50960;46.838;16.838;2022-11-20T18:40:36;4.90;99.90
64561;DHT22;50960;46.838;16.838;2022-11-20T18:43:02;4.90;99.90
64561;DHT22;50960;46.838;16.838;2022-11-20T18:46:07;5.00;99.90
64561;DHT22;50960;46.838;16.838;2022-11-20T18:48:33;5.00;99.90
64561;DHT22;50960;46.838;16.838;2022-11-20T18:51:06;4.90;99.90
64561;DHT22;50960;46.838;16.838;2022-11-20T18:53:36;4.90;99.90
64561;DHT22;50960;46.838;16.838;2022-11-20T18:56:04;5.00;99.90
64561;DHT22;50960;46.838;16.838;2022-11-20T18:58:30;5.00;99.90
64561;DHT22;50960;46.838;16.838;2022-11-20T19:01:06;5.00;99.90
64561;DHT22;50960;46.838;16.838;2022-11-20T19:03:33;4.90;99.90
64561;DHT22;50960;46.838;16.838;2022-11-20T19:05:59;5.00;99.90
64561;DHT22;50960;46.838;16.838;2022-11-20T19:08:26;4.70;99.90
64561;DHT22;50960;46.838;16.838;2022-11-20T19:10:52;4.90;99.90
64561;DHT22;50960;46.838;16.838;2022-11-20T19:13:18;4.90;99.90
64561;DHT22;50960;46.838;16.838;2022-11-20T19:15:44;5.00;99.90
64561;DHT22;50960;46.838;16.838;2022-11-20T19:18:11;5.00;99.90
64561;DHT22;50960;46.838;16.838;2022-11-20T19:20:37;4.90;99.90
64561;DHT22;50960;46.838;16.838;2022-11-20T19:23:03;4.90;99.90
64561;DHT22;50960;46.838;16.838;2022-11-20T19:25:30;4.90;99.90
64561;DHT22;50960;46.838;16.838;2022-11-20T19:27:56;4.90;99.90
64561;DHT22;50960;46.838;16.838;2022-11-20T19:30:22;5.00;99.90
64561;DHT22;50960;46.838;16.838;2022-11-20T19:32:49;5.00;99.90
64561;DHT22;50960;46.838;16.838;2022-11-20T19:35:15;5.10;99.90
64561;DHT22;50960;46.838;16.838;2022-11-20T19:37:41;5.10;99.90
64561;DHT22;50960;46.838;16.838;2022-11-20T19:40:07;5.00;99.90
64561;DHT22;50960;46.838;16.838;2022-11-20T19:42:34;5.10;99.90
64561;DHT22;50960;46.838;16.838;2022-11-20T19:45:00;5.10;99.90
64561;DHT22;50960;46.838;16.838;2022-11-20T19:47:26;5.10;99.90
64561;DHT22;50960;46.838;16.838;2022-11-20T19:49:52;5.10;99.90
64561;DHT22;50960;46.838;16.838;2022-11-20T19:52:18;5.00;99.90
64561;DHT22;50960;46.838;16.838;2022-11-20T19:54:45;5.00;99.90
64561;DHT22;50960;46.838;16.838;2022-11-20T19:57:11;4.90;99.90
64561;DHT22;50960;46.838;16.838;2022-11-20T19:59:37;5.00;99.90
64561;DHT22;50960;46.838;16.838;2022-11-20T20:02:03;5.00;99.90
64561;DHT22;50960;46.838;16.838;2022-11-20T20:04:30;5.00;99.90
64561;DHT22;50960;46.838;16.838;2022-11-20T20:06:56;5.10;99.90
64561;DHT22;50960;46.838;16.838;2022-11-20T20:09:22;5.00;99.90
64561;DHT22;50960;46.838;16.838;2022-11-20T20:11:48;5.00;99.90
64561;DHT22;50960;46.838;16.838;2022-11-20T20:14:15;5.10;99.90
64561;DHT22;50960;46.838;16.838;2022-11-20T20:16:41;5.00;99.90
64561;DHT22;50960;46.838;16.838;2022-11-20T20:19:11;5.00;99.90
64561;DHT22;50960;46.838;16.838;2022-11-20T20:21:38;4.90;99.90
64561;DHT22;50960;46.838;16.838;2022-11-20T20:24:06;4.70;99.90
64561;DHT22;50960;46.838;16.838;2022-11-20T20:26:32;4.70;99.90
64561;DHT22;50960;46.838;16.838;2022-11-20T20:29:00;4.70;99.90
64561;DHT22;50960;46.838;16.838;2022-11-20T20:31:29;4.80;99.90
64561;DHT22;50960;46.838;16.838;2022-11-20T20:33:56;4.90;99.90
64561;DHT22;50960;46.838;16.838;2022-11-20T20:36:23;4.80;99.90
64561;DHT22;50960;46.838;16.838;2022-11-20T20:38:53;4.90;99.90
64561;DHT22;50960;46.838;16.838;2022-11-20T20:41:21;5.00;99.90
64561;DHT22;50960;46.838;16.838;2022-11-20T20:43:48;5.00;99.90
64561;DHT22;50960;46.838;16.838;2022-11-20T20:46:33;5.10;99.90
64561;DHT22;50960;46.838;16.838;2022-11-20T20:48:59;4.90;99.90
64561;DHT22;50960;46.838;16.838;2022-11-20T20:51:26;5.00;99.90
64561;DHT22;50960;46.838;16.838;2022-11-20T20:53:53;5.00;99.90
64561;DHT22;50960;46.838;16.838;2022-11-20T20:56:19;5.00;99.90
64561;DHT22;50960;46.838;16.838;2022-11-20T20:58:46;5.00;99.90
64561;DHT22;50960;46.838;16.838;2022-11-20T21:01:14;5.00;99.90
64561;DHT22;50960;46.838;16.838;2022-11-20T21:03:41;5.00;99.90
64561;DHT22;50960;46.838;16.838;2022-11-20T21:06:08;4.90;99.90
64561;DHT22;50960;46.838;16.838;2022-11-20T21:08:35;5.00;99.90
64561;DHT22;50960;46.838;16.838;2022-11-20T21:11:07;4.90;99.90
64561;DHT22;50960;46.838;16.838;2022-11-20T21:13:35;4.50;99.90
64561;DHT22;50960;46.838;16.838;2022-11-20T21:16:01;4.40;99.90
64561;DHT22;50960;46.838;16.838;2022-11-20T21:18:28;4.50;99.90
64561;DHT22;50960;46.838;16.838;2022-11-20T21:20:55;4.70;99.90
64561;DHT22;50960;46.838;16.838;2022-11-20T21:23:39;4.50;99.90
64561;DHT22;50960;46.838;16.838;2022-11-20T21:26:08;4.30;99.90
64561;DHT22;50960;46.838;16.838;2022-11-20T21:28:36;4.20;99.90
64561;DHT22;50960;46.838;16.838;2022-11-20T21:31:04;4.50;99.90
64561;DHT22;50960;46.838;16.838;2022-11-20T21:33:39;4.60;99.90
64561;DHT22;50960;46.838;16.838;2022-11-20T21:36:10;4.80;99.90
64561;DHT22;50960;46.838;16.838;2022-11-20T21:38:37;4.80;99.90
64561;DHT22;50960;46.838;16.838;2022-11-20T21:41:04;4.70;99.90
64561;DHT22;50960;46.838;16.838;2022-11-20T21:43:31;4.50;99.90
64561;DHT22;50960;46.838;16.838;2022-11-20T21:46:02;4.50;99.90
64561;DHT22;50960;46.838;16.838;2022-11-20T21:48:29;4.40;99.90
64561;DHT22;50960;46.838;16.838;2022-11-20T21:51:01;4.40;99.90
64561;DHT22;50960;46.838;16.838;2022-11-20T21:53:27;4.60;99.90
64561;DHT22;50960;46.838;16.838;2022-11-20T21:55:54;4.70;99.90
64561;DHT22;50960;46.838;16.838;2022-11-20T21:58:21;4.80;99.90
64561;DHT22;50960;46.838;16.838;2022-11-20T22:00:47;4.70;99.90
64561;DHT22;50960;46.838;16.838;2022-11-20T22:03:13;4.70;99.90
64561;DHT22;50960;46.838;16.838;2022-11-20T22:05:40;4.60;99.90
64561;DHT22;50960;46.838;16.838;2022-11-20T22:08:06;4.50;99.90
